Time;durP1;ratioP1;P1;durP2;ratioP2;P2;SDS_P1;SDS_P2;PMS_P1;PMS_P2;Temp;Humidity;BMP_temperature;BMP_pressure;BME280_temperature;BME280_humidity;BME280_pressure;Samples;Min_cycle;Max_cycle;Signal;HPM_P1;HPM_P2
2022/02/27 00:01:43;;;;;;;159.50;99.80;;;;;;;-1.11;100.00;100606.52;105025;1273;74559;-74
2022/02/27 00:04:09;;;;;;;155.30;95.20;;;;;;;-1.15;100.00;100601.95;104928;1274;69477;-74
2022/02/27 00:06:35;;;;;;;158.90;99.60;;;;;;;-1.17;100.00;100602.30;104922;1275;61353;-73
2022/02/27 00:09:02;;;;;;;149.20;101.00;;;;;;;-1.18;100.00;100603.87;104930;1274;61292;-75
2022/02/27 00:11:29;;;;;;;145.50;95.50;;;;;;;-1.20;100.00;100608.73;104915;1274;61718;-74
2022/02/27 00:13:56;;;;;;;152.20;94.90;;;;;;;-1.21;100.00;100606.97;104927;1275;75249;-73
2022/02/27 00:16:22;;;;;;;153.20;97.90;;;;;;;-1.23;100.00;100612.71;104871;1274;61282;-74
2022/02/27 00:18:48;;;;;;;138.70;92.30;;;;;;;-1.25;100.00;100616.36;104892;1274;61263;-76
2022/02/27 00:21:15;;;;;;;147.00;95.00;;;;;;;-1.26;100.00;100613.58;104168;1274;1002576;-74
2022/02/27 00:23:41;;;;;;;133.20;85.90;;;;;;;-1.28;100.00;100619.48;104915;1274;61363;-73
2022/02/27 00:26:08;;;;;;;132.20;85.90;;;;;;;-1.30;100.00;100621.04;104554;1274;61416;-73
2022/02/27 00:28:34;;;;;;;133.70;89.30;;;;;;;-1.33;100.00;100621.89;104154;1274;1017316;-74
2022/02/27 00:31:01;;;;;;;114.90;76.30;;;;;;;-1.39;100.00;100623.94;104898;1274;61582;-74
2022/02/27 00:33:27;;;;;;;118.20;75.80;;;;;;;-1.44;100.00;100625.48;104908;1274;61426;-73
2022/02/27 00:35:54;;;;;;;125.10;78.20;;;;;;;-1.46;100.00;100624.05;104922;1271;61379;-73
2022/02/27 00:38:20;;;;;;;123.50;78.60;;;;;;;-1.47;100.00;100627.53;105253;1271;61310;-74
2022/02/27 00:40:47;;;;;;;115.00;73.50;;;;;;;-1.49;100.00;100628.04;105256;1270;61218;-74
2022/02/27 00:43:13;;;;;;;136.00;90.40;;;;;;;-1.54;100.00;100631.13;105219;1271;61399;-74
2022/02/27 00:45:40;;;;;;;111.50;73.40;;;;;;;-1.61;100.00;100631.05;105235;1271;61362;-73
2022/02/27 00:48:06;;;;;;;112.80;69.10;;;;;;;-1.65;100.00;100632.95;104938;1271;61325;-74
2022/02/27 00:50:33;;;;;;;113.60;70.60;;;;;;;-1.67;100.00;100630.67;105237;1271;61383;-74
2022/02/27 00:53:00;;;;;;;119.30;73.20;;;;;;;-1.67;100.00;100632.40;105145;1271;178951;-74
2022/02/27 00:55:26;;;;;;;121.30;76.40;;;;;;;-1.69;100.00;100631.18;105188;1271;71438;-74
2022/02/27 00:57:53;;;;;;;130.40;79.90;;;;;;;-1.70;100.00;100633.95;105249;1271;61391;-76
2022/02/27 01:00:19;;;;;;;125.90;77.70;;;;;;;-1.72;100.00;100630.80;105216;1271;61251;-74
2022/02/27 01:02:46;;;;;;;124.90;76.20;;;;;;;-1.72;100.00;100633.23;105266;1271;61354;-74
2022/02/27 01:05:12;;;;;;;117.00;76.30;;;;;;;-1.74;100.00;100634.27;105233;1271;61299;-75
2022/02/27 01:07:39;;;;;;;111.90;72.90;;;;;;;-1.74;100.00;100634.27;105252;1271;61357;-76
2022/02/27 01:10:06;;;;;;;121.80;75.50;;;;;;;-1.74;100.00;100634.27;105214;1271;61364;-75
2022/02/27 01:12:32;;;;;;;131.30;88.40;;;;;;;-1.74;100.00;100637.56;105222;1271;61852;-74
2022/02/27 01:14:59;;;;;;;133.10;86.80;;;;;;;-1.74;100.00;100637.04;105223;1271;61295;-74
2022/02/27 01:17:25;;;;;;;118.40;73.30;;;;;;;-1.75;100.00;100638.96;105239;1270;61377;-74
2022/02/27 01:19:52;;;;;;;130.60;85.90;;;;;;;-1.75;100.00;100638.95;105239;1271;61151;-74
2022/02/27 01:22:18;;;;;;;124.50;82.50;;;;;;;-1.74;100.00;100639.65;105255;1271;61256;-74
2022/02/27 01:24:45;;;;;;;115.40;72.40;;;;;;;-1.72;100.00;100641.60;105259;1271;61146;-74
2022/02/27 01:27:11;;;;;;;121.10;78.60;;;;;;;-1.73;100.00;100638.27;105207;1270;61285;-74
2022/02/27 01:29:38;;;;;;;104.10;66.50;;;;;;;-1.71;100.00;100633.05;105235;1271;61256;-73
2022/02/27 01:32:05;;;;;;;105.80;69.40;;;;;;;-1.70;100.00;100632.21;105141;1271;61284;-75
2022/02/27 01:34:32;;;;;;;102.90;66.20;;;;;;;-1.69;100.00;100634.15;105019;1272;61289;-75
2022/02/27 01:36:59;;;;;;;98.50;63.20;;;;;;;-1.67;100.00;100631.88;105291;1270;61266;-74
2022/02/27 01:39:26;;;;;;;97.10;63.40;;;;;;;-1.67;100.00;100631.19;104966;1271;72296;-74
2022/02/27 01:41:53;;;;;;;100.80;63.10;;;;;;;-1.67;100.00;100636.77;103909;1271;1003322;-74
2022/02/27 01:44:21;;;;;;;107.90;68.90;;;;;;;-1.68;100.00;100635.20;104946;1272;61378;-74
2022/02/27 01:47:03;;;;;;;112.40;68.90;;;;;;;-1.69;100.00;100635.54;105216;1270;61365;-75
2022/02/27 01:49:30;;;;;;;108.70;70.20;;;;;;;-1.71;100.00;100633.60;105177;1271;61342;-75
2022/02/27 01:51:57;;;;;;;120.30;76.20;;;;;;;-1.71;100.00;100638.14;105234;1270;75507;-75
2022/02/27 01:54:23;;;;;;;117.00;74.00;;;;;;;-1.72;100.00;100637.77;104945;1271;69425;-75
2022/02/27 01:56:50;;;;;;;116.60;72.00;;;;;;;-1.72;100.00;100642.48;105236;1270;61240;-75
2022/02/27 01:59:17;;;;;;;110.30;70.50;;;;;;;-1.73;100.00;100637.77;105233;1270;61278;-74
2022/02/27 02:01:44;;;;;;;105.60;67.70;;;;;;;-1.74;100.00;100638.98;105235;1270;61358;-76
2022/02/27 02:04:10;;;;;;;118.40;75.80;;;;;;;-1.74;100.00;100637.92;105211;1270;76175;-75
2022/02/27 02:06:38;;;;;;;112.00;71.40;;;;;;;-1.76;100.00;100638.60;105233;1271;70368;-75
2022/02/27 02:09:05;;;;;;;111.30;65.80;;;;;;;-1.78;100.00;100641.02;105138;1271;72618;-75
2022/02/27 02:11:34;;;;;;;107.50;65.40;;;;;;;-1.79;100.00;100642.39;105144;1271;61292;-74
2022/02/27 02:14:02;;;;;;;114.20;67.00;;;;;;;-1.81;100.00;100639.09;105274;1270;61848;-75
2022/02/27 02:16:44;;;;;;;104.40;64.20;;;;;;;-1.82;100.00;100635.94;105503;1270;74698;-75
2022/02/27 02:19:15;;;;;;;104.80;61.80;;;;;;;-1.82;100.00;100638.37;105193;1271;68871;-75
2022/02/27 02:21:45;;;;;;;95.30;60.40;;;;;;;-1.83;100.00;100635.58;105303;1270;74523;-75
2022/02/27 02:24:13;;;;;;;93.10;61.20;;;;;;;-1.80;100.00;100634.55;105307;1269;61234;-74
2022/02/27 02:26:41;;;;;;;95.40;62.30;;;;;;;-1.78;100.00;100636.15;105084;1273;61179;-74
2022/02/27 02:29:09;;;;;;;94.00;56.70;;;;;;;-1.78;100.00;100632.84;104987;1271;76193;-73
2022/02/27 02:31:37;;;;;;;93.60;58.80;;;;;;;-1.79;100.00;100635.97;105343;1270;68342;-75
2022/02/27 02:34:14;;;;;;;88.90;55.40;;;;;;;-1.79;100.00;100641.37;105503;1270;74172;-75
2022/02/27 02:36:45;;;;;;;90.90;55.30;;;;;;;-1.79;100.00;100635.59;105217;1270;61519;-75
2022/02/27 02:39:16;;;;;;;86.60;55.30;;;;;;;-1.81;100.00;100636.11;105251;1270;61233;-73
2022/02/27 02:41:42;;;;;;;92.20;56.30;;;;;;;-1.83;100.00;100633.84;105235;1270;75292;-73
2022/02/27 02:44:11;;;;;;;94.80;54.00;;;;;;;-1.85;100.00;100635.21;105275;1270;70135;-74
2022/02/27 02:46:38;;;;;;;91.90;54.40;;;;;;;-1.87;100.00;100637.45;105232;1271;73431;-73
2022/02/27 02:49:06;;;;;;;88.30;55.80;;;;;;;-1.90;100.00;100637.24;105214;1270;61371;-74
2022/02/27 02:51:33;;;;;;;93.50;56.00;;;;;;;-1.91;100.00;100638.64;105214;1270;61285;-75
2022/02/27 02:54:00;;;;;;;87.40;55.80;;;;;;;-1.93;100.00;100644.88;105239;1270;75744;-74
2022/02/27 02:56:27;;;;;;;95.70;58.00;;;;;;;-1.95;100.00;100642.93;105263;1270;70185;-78
2022/02/27 02:58:53;;;;;;;87.20;54.60;;;;;;;-1.96;100.00;100646.07;105267;1270;73161;-74
2022/02/27 03:01:22;;;;;;;88.00;54.40;;;;;;;-1.99;100.00;100647.26;105232;1270;61367;-76
2022/02/27 03:03:50;;;;;;;92.30;55.30;;;;;;;-2.00;100.00;100643.41;105248;1270;61288;-75
2022/02/27 03:06:17;;;;;;;97.60;58.60;;;;;;;-2.03;100.00;100640.95;105313;1269;76382;-74
2022/02/27 03:08:46;;;;;;;97.30;58.10;;;;;;;-2.06;100.00;100641.61;105220;1270;70087;-75
2022/02/27 03:11:18;;;;;;;96.40;59.00;;;;;;;-2.08;100.00;100643.86;105259;1270;73129;-74
2022/02/27 03:13:46;;;;;;;94.90;59.70;;;;;;;-2.10;100.00;100644.88;105183;1270;61256;-74
2022/02/27 03:16:13;;;;;;;103.90;62.20;;;;;;;-2.12;100.00;100647.64;104951;1270;61212;-76
2022/02/27 03:18:39;;;;;;;103.60;65.50;;;;;;;-2.12;100.00;100648.51;105280;1270;76134;-74
2022/02/27 03:21:06;;;;;;;104.00;68.90;;;;;;;-2.13;100.00;100647.80;105228;1270;70215;-73
2022/02/27 03:23:34;;;;;;;103.60;66.20;;;;;;;-2.14;100.00;100651.09;105280;1270;73532;-74
2022/02/27 03:26:00;;;;;;;102.10;65.20;;;;;;;-2.16;100.00;100651.94;105240;1270;61351;-73
2022/02/27 03:28:27;;;;;;;107.90;66.10;;;;;;;-2.20;100.00;100651.55;104969;1271;61375;-73
2022/02/27 03:30:53;;;;;;;105.70;65.10;;;;;;;-2.25;100.00;100653.77;105248;1270;61266;-73
2022/02/27 03:33:20;;;;;;;106.10;62.50;;;;;;;-2.31;100.00;100656.98;105240;1270;69151;-74
2022/02/27 03:35:47;;;;;;;93.40;59.40;;;;;;;-2.36;100.00;100652.94;105125;1271;74461;-74
2022/02/27 03:38:16;;;;;;;95.90;58.90;;;;;;;-2.39;100.00;100653.59;105205;1270;61261;-74
2022/02/27 03:40:43;;;;;;;94.00;58.50;;;;;;;-2.43;100.00;100654.77;105020;1271;62299;-74
2022/02/27 03:43:10;;;;;;;100.90;60.30;;;;;;;-2.47;100.00;100655.41;105264;1270;75248;-75
2022/02/27 03:45:36;;;;;;;108.60;62.80;;;;;;;-2.50;100.00;100658.50;105240;1270;69124;-74
2022/02/27 03:48:03;;;;;;;104.30;63.70;;;;;;;-2.56;100.00;100656.52;105223;1271;61228;-74
2022/02/27 03:50:30;;;;;;;100.80;62.00;;;;;;;-2.62;100.00;100660.42;105194;1269;61328;-75
2022/02/27 03:52:56;;;;;;;105.10;63.50;;;;;;;-2.68;100.00;100665.73;105181;1270;61208;-74
2022/02/27 03:55:22;;;;;;;102.40;61.90;;;;;;;-2.72;100.00;100665.69;105261;1270;61241;-73
2022/02/27 03:57:49;;;;;;;97.50;61.30;;;;;;;-2.76;100.00;100667.03;105248;1270;61245;-74
2022/02/27 04:00:17;;;;;;;106.00;64.30;;;;;;;-2.79;100.00;100662.80;105274;1270;61368;-74
2022/02/27 04:02:45;;;;;;;104.10;64.00;;;;;;;-2.81;100.00;100666.09;105080;1271;61364;-74
2022/02/27 04:05:16;;;;;;;113.90;64.30;;;;;;;-2.82;100.00;100662.42;105585;1269;61158;-74
2022/02/27 04:07:43;;;;;;;102.80;62.20;;;;;;;-2.85;100.00;100660.48;105232;1270;76263;-74
2022/02/27 04:10:11;;;;;;;97.70;55.90;;;;;;;-2.90;100.00;100660.23;105247;1270;69589;-74
2022/02/27 04:12:37;;;;;;;93.80;56.60;;;;;;;-2.94;100.00;100662.59;104971;1271;70787;-74
2022/02/27 04:15:06;;;;;;;95.80;59.00;;;;;;;-2.99;100.00;100664.61;105205;1270;61393;-72
2022/02/27 04:17:32;;;;;;;102.70;61.20;;;;;;;-3.02;100.00;100672.03;105267;1269;61352;-73
2022/02/27 04:19:59;;;;;;;104.20;62.70;;;;;;;-3.03;100.00;100675.15;105239;1269;61709;-73
2022/02/27 04:22:26;;;;;;;97.00;58.20;;;;;;;-3.03;100.00;100670.81;105212;1270;61269;-73
2022/02/27 04:24:53;;;;;;;97.80;60.90;;;;;;;-3.05;100.00;100671.29;105216;1270;74106;-73
2022/02/27 04:27:19;;;;;;;104.10;64.00;;;;;;;-3.10;100.00;100667.75;105217;1270;61210;-73
2022/02/27 04:29:46;;;;;;;103.40;61.50;;;;;;;-3.15;100.00;100667.33;105294;1270;61248;-73
2022/02/27 04:32:12;;;;;;;99.00;63.00;;;;;;;-3.18;100.00;100670.57;105240;1269;61276;-75
2022/02/27 04:34:39;;;;;;;91.30;58.50;;;;;;;-3.21;100.00;100667.76;105261;1270;69277;-74
2022/02/27 04:37:06;;;;;;;95.30;59.70;;;;;;;-3.23;100.00;100670.33;105241;1270;74152;-74
2022/02/27 04:39:32;;;;;;;102.30;61.50;;;;;;;-3.25;100.00;100672.89;105255;1270;61286;-74
2022/02/27 04:42:00;;;;;;;99.50;58.70;;;;;;;-3.28;100.00;100667.80;105262;1270;61210;-73
2022/02/27 04:44:26;;;;;;;93.80;61.20;;;;;;;-3.33;100.00;100673.63;105279;1270;76447;-73
2022/02/27 04:46:52;;;;;;;97.20;59.40;;;;;;;-3.36;100.00;100678.98;105236;1270;61365;-73
2022/02/27 04:49:19;;;;;;;100.40;60.40;;;;;;;-3.37;100.00;100682.45;105257;1270;61467;-73
2022/02/27 04:51:45;;;;;;;98.30;60.00;;;;;;;-3.37;100.00;100684.19;105265;1269;61308;-73
2022/02/27 04:54:12;;;;;;;98.90;62.90;;;;;;;-3.38;100.00;100685.21;105267;1270;61320;-75
2022/02/27 04:56:38;;;;;;;98.00;64.20;;;;;;;-3.39;100.00;100683.09;105266;1269;61376;-73
2022/02/27 04:59:05;;;;;;;98.00;60.00;;;;;;;-3.41;100.00;100678.37;105259;1270;61374;-73
2022/02/27 05:01:31;;;;;;;99.30;59.70;;;;;;;-3.43;100.00;100677.11;105265;1270;61272;-73
2022/02/27 05:03:58;;;;;;;97.60;59.60;;;;;;;-3.44;100.00;100677.10;105263;1270;61362;-73
2022/02/27 05:06:25;;;;;;;102.00;61.40;;;;;;;-3.45;100.00;100678.48;105322;1270;61287;-73
2022/02/27 05:08:51;;;;;;;97.40;61.10;;;;;;;-3.45;100.00;100684.89;105250;1270;61491;-73
2022/02/27 05:11:17;;;;;;;101.10;63.10;;;;;;;-3.43;100.00;100682.67;105290;1270;61274;-75
2022/02/27 05:13:44;;;;;;;103.90;63.70;;;;;;;-3.40;100.00;100684.46;105268;1269;61370;-74
2022/02/27 05:16:10;;;;;;;102.90;66.30;;;;;;;-3.35;100.00;100690.29;105323;1270;61428;-74
2022/02/27 05:18:37;;;;;;;105.30;65.70;;;;;;;-3.29;100.00;100692.48;105309;1270;61666;-74
2022/02/27 05:21:04;;;;;;;103.70;68.90;;;;;;;-3.22;100.00;100698.31;105333;1270;61351;-75
2022/02/27 05:23:30;;;;;;;117.80;77.00;;;;;;;-3.16;100.00;100702.95;105062;1271;61449;-74
2022/02/27 05:25:58;;;;;;;109.30;74.00;;;;;;;-3.11;100.00;100705.64;105285;1270;61682;-75
2022/02/27 05:28:26;;;;;;;105.00;73.60;;;;;;;-3.04;100.00;100712.51;105342;1270;61409;-75
2022/02/27 05:30:53;;;;;;;108.60;74.80;;;;;;;-3.00;100.00;100710.16;105314;1270;61241;-75
2022/02/27 05:33:19;;;;;;;126.40;83.50;;;;;;;-2.97;100.00;100708.29;105266;1270;74995;-75
2022/02/27 05:35:46;;;;;;;137.10;89.20;;;;;;;-2.94;100.00;100711.82;105295;1270;69452;-74
2022/02/27 05:38:13;;;;;;;129.40;87.20;;;;;;;-2.91;100.00;100711.52;105300;1270;72828;-74
2022/02/27 05:40:39;;;;;;;130.40;84.70;;;;;;;-2.89;100.00;100709.27;105254;1269;61374;-73
2022/02/27 05:43:07;;;;;;;146.10;97.50;;;;;;;-2.86;100.00;100709.84;105315;1270;62028;-75
2022/02/27 05:45:34;;;;;;;137.80;92.60;;;;;;;-2.84;100.00;100712.65;105261;1270;75292;-76
2022/02/27 05:48:00;;;;;;;134.30;87.10;;;;;;;-2.82;100.00;100710.59;105251;1270;69332;-74
2022/02/27 05:50:27;;;;;;;136.20;90.20;;;;;;;-2.79;100.00;100714.48;105246;1270;73192;-75
2022/02/27 05:52:54;;;;;;;119.90;85.10;;;;;;;-2.76;100.00;100717.65;105296;1270;62001;-74
2022/02/27 05:55:20;;;;;;;127.20;84.40;;;;;;;-2.71;100.00;100721.38;105292;1269;61187;-73
2022/02/27 05:57:47;;;;;;;133.10;86.20;;;;;;;-2.66;100.00;100721.27;105283;1270;74841;-73
2022/02/27 06:00:13;;;;;;;132.80;85.10;;;;;;;-2.59;100.00;100721.20;105257;1270;61339;-73
2022/02/27 06:02:41;;;;;;;122.10;83.30;;;;;;;-2.52;100.00;100722.85;105220;1270;73916;-73
2022/02/27 06:05:08;;;;;;;125.50;78.60;;;;;;;-2.47;100.00;100731.98;105246;1270;61288;-73
2022/02/27 06:07:34;;;;;;;113.10;71.20;;;;;;;-2.43;100.00;100734.48;105221;1269;62185;-73
2022/02/27 06:10:01;;;;;;;106.70;70.00;;;;;;;-2.39;100.00;100735.23;105238;1270;61279;-73
2022/02/27 06:12:27;;;;;;;108.50;75.20;;;;;;;-2.35;100.00;100738.75;105257;1270;61359;-73
2022/02/27 06:14:54;;;;;;;110.70;70.50;;;;;;;-2.30;100.00;100739.16;105240;1270;61389;-75
2022/02/27 06:17:20;;;;;;;106.20;72.20;;;;;;;-2.25;100.00;100741.85;105286;1270;61409;-75
2022/02/27 06:19:47;;;;;;;105.80;70.30;;;;;;;-2.18;100.00;100748.02;105286;1269;61258;-74
2022/02/27 06:22:13;;;;;;;104.30;65.80;;;;;;;-2.12;100.00;100749.33;105263;1270;61186;-74
2022/02/27 06:24:40;;;;;;;98.30;65.80;;;;;;;-2.03;100.00;100746.48;105336;1270;61421;-74
2022/02/27 06:27:06;;;;;;;103.80;68.30;;;;;;;-1.95;100.00;100749.36;103082;1270;1015971;-74
2022/02/27 06:29:33;;;;;;;104.20;68.60;;;;;;;-1.88;100.00;100752.23;105290;1270;61336;-74
2022/02/27 06:31:59;;;;;;;111.90;70.90;;;;;;;-1.81;100.00;100755.29;105354;1269;61333;-75
2022/02/27 06:34:26;;;;;;;103.60;70.20;;;;;;;-1.73;100.00;100758.16;105266;1270;61567;-73
2022/02/27 06:36:52;;;;;;;105.10;70.90;;;;;;;-1.65;100.00;100759.99;105373;1270;61384;-74
2022/02/27 06:39:20;;;;;;;100.10;69.10;;;;;;;-1.57;100.00;100762.52;105335;1270;61259;-73
2022/02/27 06:41:47;;;;;;;100.10;68.10;;;;;;;-1.51;100.00;100762.92;105485;1270;61371;-73
2022/02/27 06:44:14;;;;;;;106.10;69.70;;;;;;;-1.46;100.00;100763.52;106029;1271;61468;-74
2022/02/27 06:46:40;;;;;;;99.20;68.80;;;;;;;-1.41;100.00;100760.77;105322;1270;61414;-75
2022/02/27 06:49:07;;;;;;;105.20;67.30;;;;;;;-1.33;100.00;100765.20;105199;1270;61320;-73
2022/02/27 06:51:33;;;;;;;93.20;63.80;;;;;;;-1.26;100.00;100768.76;105272;1270;61280;-74
2022/02/27 06:53:59;;;;;;;93.20;65.00;;;;;;;-1.21;100.00;100770.73;105319;1270;62924;-74
2022/02/27 06:56:27;;;;;;;88.10;62.30;;;;;;;-1.15;100.00;100772.53;105299;1270;61455;-76
2022/02/27 06:58:53;;;;;;;86.20;62.50;;;;;;;-1.07;100.00;100775.91;105312;1270;76220;-74
2022/02/27 07:01:20;;;;;;;86.80;61.60;;;;;;;-1.01;100.00;100778.75;105277;1270;61235;-74
2022/02/27 07:03:46;;;;;;;92.80;62.60;;;;;;;-0.97;100.00;100782.81;105253;1270;61359;-74
2022/02/27 07:06:13;;;;;;;84.50;59.80;;;;;;;-0.90;100.00;100783.73;105275;1269;61241;-74
2022/02/27 07:08:39;;;;;;;80.80;58.30;;;;;;;-0.82;100.00;100787.45;105261;1270;61137;-76
2022/02/27 07:11:06;;;;;;;82.40;58.00;;;;;;;-0.74;100.00;100785.45;105269;1270;61201;-75
2022/02/27 07:13:32;;;;;;;84.70;58.80;;;;;;;-0.64;100.00;100788.31;105270;1270;61311;-74
2022/02/27 07:15:59;;;;;;;82.30;59.50;;;;;;;-0.50;100.00;100792.08;105262;1270;61290;-74
2022/02/27 07:18:25;;;;;;;80.10;56.60;;;;;;;-0.31;100.00;100790.11;105265;1270;61257;-77
2022/02/27 07:20:52;;;;;;;81.10;56.20;;;;;;;-0.14;100.00;100786.52;105248;1270;61378;-75
2022/02/27 07:23:18;;;;;;;81.60;56.30;;;;;;;-0.02;100.00;100787.13;105253;1270;61438;-74
2022/02/27 07:25:45;;;;;;;86.30;62.10;;;;;;;0.08;100.00;100782.80;105276;1270;61390;-75
2022/02/27 07:28:11;;;;;;;110.80;74.80;;;;;;;0.18;100.00;100785.98;105249;1270;61375;-75
2022/02/27 07:30:37;;;;;;;84.70;59.20;;;;;;;0.26;100.00;100783.23;105257;1270;61759;-75
2022/02/27 07:33:04;;;;;;;82.10;58.20;;;;;;;0.33;100.00;100780.44;105276;1270;61288;-74
2022/02/27 07:35:30;;;;;;;79.00;57.40;;;;;;;0.35;100.00;100783.78;105245;1270;61448;-75
2022/02/27 07:37:58;;;;;;;82.30;59.30;;;;;;;0.38;100.00;100780.47;105281;1270;61395;-74
2022/02/27 07:40:26;;;;;;;84.20;59.80;;;;;;;0.47;100.00;100780.84;105225;1269;73513;-75
2022/02/27 07:42:53;;;;;;;81.10;59.70;;;;;;;0.57;100.00;100782.80;105264;1270;61275;-74
2022/02/27 07:45:20;;;;;;;83.50;58.70;;;;;;;0.65;100.00;100776.88;105264;1269;61926;-75
2022/02/27 07:47:47;;;;;;;83.30;59.60;;;;;;;0.75;100.00;100781.79;105344;1270;75279;-74
2022/02/27 07:50:13;;;;;;;72.40;52.00;;;;;;;0.85;100.00;100785.65;105271;1270;70402;-74
2022/02/27 07:52:40;;;;;;;71.90;51.40;;;;;;;0.94;100.00;100787.06;105268;1269;61359;-74
2022/02/27 07:55:06;;;;;;;70.30;51.40;;;;;;;1.02;100.00;100787.96;105245;1270;61383;-74
2022/02/27 07:57:33;;;;;;;69.90;50.40;;;;;;;1.11;100.00;100788.13;105263;1269;61869;-75
2022/02/27 07:59:59;;;;;;;68.00;49.20;;;;;;;1.19;100.00;100784.98;104977;1270;61407;-75
2022/02/27 08:02:26;;;;;;;64.10;48.20;;;;;;;1.30;100.00;100782.87;105293;1270;61279;-74
2022/02/27 08:04:52;;;;;;;64.50;46.70;;;;;;;1.37;100.00;100782.35;105279;1269;61357;-75
2022/02/27 08:07:19;;;;;;;60.70;44.30;;;;;;;1.43;100.00;100778.66;105287;1270;61395;-76
2022/02/27 08:09:45;;;;;;;63.00;45.90;;;;;;;1.49;100.00;100783.21;105306;1270;61237;-75
2022/02/27 08:12:12;;;;;;;75.90;55.30;;;;;;;1.55;100.00;100780.56;105336;1270;61298;-74
2022/02/27 08:14:38;;;;;;;144.00;88.70;;;;;;;1.65;100.00;100781.96;105298;1270;61365;-74
2022/02/27 08:17:04;;;;;;;102.30;80.50;;;;;;;1.72;100.00;100785.45;104933;1269;61473;-75
2022/02/27 08:19:31;;;;;;;58.90;42.00;;;;;;;1.80;100.00;100786.14;105194;1270;61858;-74
2022/02/27 08:21:57;;;;;;;59.50;43.50;;;;;;;1.85;100.00;100785.41;105257;1267;61255;-74
2022/02/27 08:24:24;;;;;;;56.80;42.20;;;;;;;1.92;100.00;100783.30;105242;1269;61373;-75
2022/02/27 08:26:50;;;;;;;56.60;41.90;;;;;;;1.99;100.00;100784.51;105273;1270;61373;-75
2022/02/27 08:29:16;;;;;;;53.90;37.10;;;;;;;2.06;100.00;100783.42;104999;1270;61494;-75
2022/02/27 08:31:45;;;;;;;51.60;34.80;;;;;;;2.13;100.00;100780.42;105279;1269;61379;-75
2022/02/27 08:34:13;;;;;;;49.20;36.50;;;;;;;2.18;100.00;100781.63;105277;1270;61286;-74
2022/02/27 08:36:40;;;;;;;74.80;65.80;;;;;;;2.24;100.00;100782.48;105243;1270;75617;-75
2022/02/27 08:39:09;;;;;;;50.30;38.80;;;;;;;2.30;100.00;100778.79;105246;1269;69369;-75
2022/02/27 08:41:37;;;;;;;49.50;36.00;;;;;;;2.36;100.00;100779.63;105373;1268;74512;-76
2022/02/27 08:44:04;;;;;;;57.10;44.40;;;;;;;2.42;100.00;100778.20;105346;1270;61305;-74
2022/02/27 08:46:31;;;;;;;47.60;32.20;;;;;;;2.51;100.00;100778.50;104998;1271;61272;-75
2022/02/27 08:48:57;;;;;;;43.30;32.40;;;;;;;2.56;100.00;100776.89;105208;1269;61269;-75
2022/02/27 08:51:24;;;;;;;47.30;35.50;;;;;;;2.61;100.00;100771.77;105259;1270;61278;-75
2022/02/27 08:53:50;;;;;;;47.20;38.80;;;;;;;2.69;100.00;100774.02;104944;1270;61295;-76
2022/02/27 08:56:17;;;;;;;122.80;86.20;;;;;;;2.78;100.00;100773.41;105256;1270;61249;-76
2022/02/27 08:58:43;;;;;;;54.90;43.00;;;;;;;2.89;100.00;100772.46;105253;1270;61297;-75
2022/02/27 09:01:10;;;;;;;39.30;30.70;;;;;;;2.99;100.00;100770.11;105249;1270;61263;-76
2022/02/27 09:03:37;;;;;;;40.30;29.70;;;;;;;3.08;100.00;100769.69;105284;1270;61992;-75
2022/02/27 09:06:04;;;;;;;41.70;30.50;;;;;;;3.15;100.00;100769.48;105272;1270;73219;-76
2022/02/27 09:08:30;;;;;;;35.50;26.00;;;;;;;3.19;100.00;100768.03;105290;1270;61337;-76
2022/02/27 09:10:56;;;;;;;43.20;30.30;;;;;;;3.23;100.00;100766.77;104971;1270;61305;-74
2022/02/27 09:13:23;;;;;;;35.90;25.50;;;;;;;3.28;100.00;100766.02;105245;1270;61378;-76
2022/02/27 09:15:50;;;;;;;35.50;24.90;;;;;;;3.33;100.00;100762.11;105230;1270;61272;-76
2022/02/27 09:18:16;;;;;;;36.00;26.60;;;;;;;3.39;100.00;100760.48;105238;1270;74164;-75
2022/02/27 09:20:44;;;;;;;45.40;34.70;;;;;;;3.51;100.00;100761.59;104958;1271;61333;-77
2022/02/27 09:23:12;;;;;;;37.70;29.70;;;;;;;3.62;100.00;100761.13;105294;1270;61138;-76
2022/02/27 09:25:38;;;;;;;33.20;25.20;;;;;;;3.71;100.00;100758.58;105304;1270;73630;-77
2022/02/27 09:28:05;;;;;;;33.80;25.00;;;;;;;3.78;100.00;100758.17;105295;1270;61275;-75
2022/02/27 09:30:31;;;;;;;35.00;26.20;;;;;;;3.85;100.00;100756.49;105296;1269;61262;-75
2022/02/27 09:32:57;;;;;;;52.30;41.40;;;;;;;3.95;100.00;100754.10;105302;1269;61368;-75
2022/02/27 09:35:28;;;;;;;32.80;28.00;;;;;;;4.05;100.00;100751.16;105276;1268;61295;-76
2022/02/27 09:37:57;;;;;;;31.20;24.20;;;;;;;4.15;100.00;100752.27;105297;1270;75171;-75
2022/02/27 09:40:24;;;;;;;37.70;33.70;;;;;;;4.25;100.00;100747.06;105374;1270;70381;-76
2022/02/27 09:42:52;;;;;;;29.00;19.80;;;;;;;4.37;100.00;100752.86;105296;1270;73534;-75
2022/02/27 09:45:21;;;;;;;30.10;22.00;;;;;;;4.42;100.00;100749.98;105316;1270;61380;-75
2022/02/27 09:47:49;;;;;;;29.80;21.70;;;;;;;4.51;100.00;100743.89;105292;1270;61280;-76
2022/02/27 09:50:16;;;;;;;28.50;22.30;;;;;;;4.67;100.00;100745.42;105394;1271;74589;-75
2022/02/27 09:52:44;;;;;;;26.30;19.00;;;;;;;4.93;100.00;100745.20;106644;1270;69155;-83
2022/02/27 09:55:15;;;;;;;23.20;18.60;;;;;;;5.27;100.00;100741.30;106691;1270;71505;-79
2022/02/27 09:57:46;;;;;;;24.30;17.60;;;;;;;5.62;100.00;100739.08;105724;1270;61199;-81
2022/02/27 10:00:15;;;;;;;21.00;16.70;;;;;;;6.02;100.00;100730.38;105614;1270;62082;-80
2022/02/27 10:03:09;;;;;;;23.60;17.40;;;;;;;6.39;100.00;100730.68;105925;1270;75757;-80
2022/02/27 10:05:47;;;;;;;23.80;18.00;;;;;;;6.60;98.85;100733.91;106023;1270;68642;-80
2022/02/27 10:08:15;;;;;;;21.80;17.40;;;;;;;6.65;99.30;100733.27;105895;1269;73460;-79
2022/02/27 10:10:57;;;;;;;23.30;18.60;;;;;;;6.61;99.04;100727.37;105860;1270;61292;-81
2022/02/27 10:13:37;;;;;;;23.50;19.20;;;;;;;6.62;99.02;100724.52;105365;1270;61236;-78
2022/02/27 10:16:06;;;;;;;24.90;19.70;;;;;;;6.53;98.27;100724.02;105390;1270;76228;-79
2022/02/27 10:18:45;;;;;;;23.90;18.40;;;;;;;6.39;98.08;100722.38;105540;1270;70185;-80
2022/02/27 10:21:26;;;;;;;21.50;18.10;;;;;;;6.22;98.11;100715.86;105879;1270;74372;-78
2022/02/27 10:24:02;;;;;;;27.00;18.50;;;;;;;6.12;98.56;100712.00;105974;1269;61456;-76
2022/02/27 10:26:32;;;;;;;23.40;17.50;;;;;;;6.03;98.15;100712.91;105358;1269;61365;-77
2022/02/27 10:29:07;;;;;;;22.40;16.70;;;;;;;5.88;97.90;100708.60;105400;1268;76292;-76
2022/02/27 10:31:36;;;;;;;25.40;17.20;;;;;;;5.79;98.28;100704.55;105420;1268;68425;-78
2022/02/27 10:34:22;;;;;;;25.30;17.60;;;;;;;5.78;98.53;100701.03;105285;1268;72339;-77
2022/02/27 10:37:06;;;;;;;25.70;17.30;;;;;;;5.77;98.14;100698.23;105143;1271;61395;-77
2022/02/27 10:39:32;;;;;;;20.00;15.60;;;;;;;5.77;97.45;100699.32;105330;1268;61517;-78
2022/02/27 10:42:20;;;;;;;21.10;15.60;;;;;;;5.73;97.08;100690.73;105286;1268;75246;-77
2022/02/27 10:44:51;;;;;;;23.30;15.20;;;;;;;5.74;97.00;100685.95;105308;1268;70217;-77
2022/02/27 10:47:24;;;;;;;33.00;23.50;;;;;;;5.84;97.67;100685.74;105317;1268;72671;-79
2022/02/27 10:49:53;;;;;;;28.40;23.30;;;;;;;5.97;97.09;100683.05;105605;1267;61359;-78
2022/02/27 10:52:21;;;;;;;23.10;17.40;;;;;;;6.04;96.77;100676.54;105380;1268;61259;-77
2022/02/27 10:54:53;;;;;;;20.80;17.60;;;;;;;6.14;96.44;100679.14;105345;1268;74179;-77
2022/02/27 10:57:38;;;;;;;21.00;16.10;;;;;;;6.21;96.35;100673.19;105544;1267;69912;-78